sensor_id;sensor_type;location;lat;lon;timestamp;P1;durP1;ratioP1;P2;durP2;ratioP2
4889;SDS011;2459;42.268;23.112;2022-09-03T00:00:56;12.93;;;7.30;;
4889;SDS011;2459;42.268;23.112;2022-09-03T00:03:28;9.50;;;6.80;;
4889;SDS011;2459;42.268;23.112;2022-09-03T00:06:00;9.23;;;6.07;;
4889;SDS011;2459;42.268;23.112;2022-09-03T00:08:32;10.50;;;6.13;;
4889;SDS011;2459;42.268;23.112;2022-09-03T00:11:02;12.20;;;7.83;;
4889;SDS011;2459;42.268;23.112;2022-09-03T00:13:32;7.23;;;6.27;;
4889;SDS011;2459;42.268;23.112;2022-09-03T00:15:59;15.40;;;7.47;;
4889;SDS011;2459;42.268;23.112;2022-09-03T00:18:28;8.40;;;5.90;;
4889;SDS011;2459;42.268;23.112;2022-09-03T00:20:57;10.37;;;5.60;;
4889;SDS011;2459;42.268;23.112;2022-09-03T00:23:28;7.73;;;5.17;;
4889;SDS011;2459;42.268;23.112;2022-09-03T00:25:57;13.67;;;5.57;;
4889;SDS011;2459;42.268;23.112;2022-09-03T00:28:26;10.33;;;5.20;;
4889;SDS011;2459;42.268;23.112;2022-09-03T00:30:57;8.60;;;5.67;;
4889;SDS011;2459;42.268;23.112;2022-09-03T00:33:28;8.07;;;6.10;;
4889;SDS011;2459;42.268;23.112;2022-09-03T00:36:02;7.57;;;5.97;;
4889;SDS011;2459;42.268;23.112;2022-09-03T00:38:31;7.90;;;5.90;;
4889;SDS011;2459;42.268;23.112;2022-09-03T00:41:01;11.20;;;6.00;;
4889;SDS011;2459;42.268;23.112;2022-09-03T00:43:33;8.97;;;5.97;;
4889;SDS011;2459;42.268;23.112;2022-09-03T00:46:06;5.83;;;5.23;;
4889;SDS011;2459;42.268;23.112;2022-09-03T00:48:39;8.90;;;6.20;;
4889;SDS011;2459;42.268;23.112;2022-09-03T00:51:09;8.43;;;5.27;;
4889;SDS011;2459;42.268;23.112;2022-09-03T00:53:40;10.93;;;6.17;;
4889;SDS011;2459;42.268;23.112;2022-09-03T00:56:10;11.10;;;6.13;;
4889;SDS011;2459;42.268;23.112;2022-09-03T00:58:57;7.40;;;5.93;;
4889;SDS011;2459;42.268;23.112;2022-09-03T01:01:29;9.33;;;6.17;;
4889;SDS011;2459;42.268;23.112;2022-09-03T01:04:02;11.83;;;5.90;;
4889;SDS011;2459;42.268;23.112;2022-09-03T01:06:34;9.10;;;6.17;;
4889;SDS011;2459;42.268;23.112;2022-09-03T01:09:06;8.43;;;7.53;;
4889;SDS011;2459;42.268;23.112;2022-09-03T01:11:37;6.63;;;5.90;;
4889;SDS011;2459;42.268;23.112;2022-09-03T01:14:11;9.73;;;6.17;;
4889;SDS011;2459;42.268;23.112;2022-09-03T01:16:41;11.97;;;6.83;;
4889;SDS011;2459;42.268;23.112;2022-09-03T01:19:12;14.53;;;6.60;;
4889;SDS011;2459;42.268;23.112;2022-09-03T01:21:54;12.13;;;7.13;;
4889;SDS011;2459;42.268;23.112;2022-09-03T01:24:26;12.70;;;6.87;;
4889;SDS011;2459;42.268;23.112;2022-09-03T01:27:05;12.00;;;7.20;;
4889;SDS011;2459;42.268;23.112;2022-09-03T01:29:37;9.23;;;6.93;;
4889;SDS011;2459;42.268;23.112;2022-09-03T01:32:06;10.03;;;7.00;;
4889;SDS011;2459;42.268;23.112;2022-09-03T01:34:38;9.53;;;7.20;;
4889;SDS011;2459;42.268;23.112;2022-09-03T01:37:10;9.90;;;6.90;;
4889;SDS011;2459;42.268;23.112;2022-09-03T01:39:41;10.30;;;6.40;;
4889;SDS011;2459;42.268;23.112;2022-09-03T01:42:13;9.67;;;6.40;;
4889;SDS011;2459;42.268;23.112;2022-09-03T01:44:50;9.80;;;5.60;;
4889;SDS011;2459;42.268;23.112;2022-09-03T01:47:21;16.10;;;8.00;;
4889;SDS011;2459;42.268;23.112;2022-09-03T01:49:58;7.63;;;5.50;;
4889;SDS011;2459;42.268;23.112;2022-09-03T01:52:29;9.33;;;6.80;;
4889;SDS011;2459;42.268;23.112;2022-09-03T01:55:05;8.80;;;6.63;;
4889;SDS011;2459;42.268;23.112;2022-09-03T01:57:45;9.50;;;6.20;;
4889;SDS011;2459;42.268;23.112;2022-09-03T02:00:15;12.03;;;6.43;;
4889;SDS011;2459;42.268;23.112;2022-09-03T02:02:45;13.23;;;7.50;;
4889;SDS011;2459;42.268;23.112;2022-09-03T02:05:13;9.33;;;6.67;;
4889;SDS011;2459;42.268;23.112;2022-09-03T02:07:41;19.03;;;6.47;;
4889;SDS011;2459;42.268;23.112;2022-09-03T02:10:08;9.17;;;6.40;;
4889;SDS011;2459;42.268;23.112;2022-09-03T02:12:36;16.17;;;6.67;;
4889;SDS011;2459;42.268;23.112;2022-09-03T02:15:04;9.63;;;6.70;;
4889;SDS011;2459;42.268;23.112;2022-09-03T02:17:33;7.43;;;5.70;;
4889;SDS011;2459;42.268;23.112;2022-09-03T02:20:01;18.47;;;8.07;;
4889;SDS011;2459;42.268;23.112;2022-09-03T02:22:29;23.83;;;7.87;;
4889;SDS011;2459;42.268;23.112;2022-09-03T02:24:55;12.13;;;7.17;;
4889;SDS011;2459;42.268;23.112;2022-09-03T02:27:22;19.63;;;7.00;;
4889;SDS011;2459;42.268;23.112;2022-09-03T02:29:48;10.50;;;7.00;;
4889;SDS011;2459;42.268;23.112;2022-09-03T02:32:15;7.70;;;5.87;;
4889;SDS011;2459;42.268;23.112;2022-09-03T02:34:42;9.20;;;6.10;;
4889;SDS011;2459;42.268;23.112;2022-09-03T02:37:12;12.93;;;6.30;;
4889;SDS011;2459;42.268;23.112;2022-09-03T02:39:39;12.17;;;6.40;;
4889;SDS011;2459;42.268;23.112;2022-09-03T02:42:06;9.27;;;6.17;;
4889;SDS011;2459;42.268;23.112;2022-09-03T02:44:34;22.50;;;6.40;;
4889;SDS011;2459;42.268;23.112;2022-09-03T02:47:03;7.27;;;5.30;;
4889;SDS011;2459;42.268;23.112;2022-09-03T02:49:30;10.87;;;5.70;;
4889;SDS011;2459;42.268;23.112;2022-09-03T02:51:59;6.30;;;4.90;;
4889;SDS011;2459;42.268;23.112;2022-09-03T02:54:26;9.30;;;5.73;;
4889;SDS011;2459;42.268;23.112;2022-09-03T02:56:52;11.83;;;7.10;;
4889;SDS011;2459;42.268;23.112;2022-09-03T02:59:19;6.93;;;5.50;;
4889;SDS011;2459;42.268;23.112;2022-09-03T03:01:47;7.40;;;5.80;;
4889;SDS011;2459;42.268;23.112;2022-09-03T03:04:13;18.00;;;6.77;;
4889;SDS011;2459;42.268;23.112;2022-09-03T03:06:40;17.97;;;5.13;;
4889;SDS011;2459;42.268;23.112;2022-09-03T03:09:07;9.57;;;5.40;;
4889;SDS011;2459;42.268;23.112;2022-09-03T03:11:35;5.70;;;4.37;;
4889;SDS011;2459;42.268;23.112;2022-09-03T03:14:02;5.40;;;4.53;;
4889;SDS011;2459;42.268;23.112;2022-09-03T03:16:28;13.00;;;6.10;;
4889;SDS011;2459;42.268;23.112;2022-09-03T03:18:55;17.30;;;5.50;;
4889;SDS011;2459;42.268;23.112;2022-09-03T03:21:22;6.50;;;5.30;;
4889;SDS011;2459;42.268;23.112;2022-09-03T03:23:48;14.63;;;6.60;;
4889;SDS011;2459;42.268;23.112;2022-09-03T03:26:17;10.33;;;5.90;;
4889;SDS011;2459;42.268;23.112;2022-09-03T03:28:43;6.70;;;4.77;;
4889;SDS011;2459;42.268;23.112;2022-09-03T03:31:11;9.13;;;5.60;;
4889;SDS011;2459;42.268;23.112;2022-09-03T03:33:38;10.90;;;5.00;;
4889;SDS011;2459;42.268;23.112;2022-09-03T03:36:06;8.73;;;5.30;;
4889;SDS011;2459;42.268;23.112;2022-09-03T03:38:33;6.20;;;5.50;;
4889;SDS011;2459;42.268;23.112;2022-09-03T03:41:05;11.20;;;5.70;;
4889;SDS011;2459;42.268;23.112;2022-09-03T03:43:33;6.70;;;5.80;;
4889;SDS011;2459;42.268;23.112;2022-09-03T03:45:59;13.03;;;8.00;;
4889;SDS011;2459;42.268;23.112;2022-09-03T03:48:26;11.10;;;7.00;;
4889;SDS011;2459;42.268;23.112;2022-09-03T03:50:52;21.77;;;5.83;;
4889;SDS011;2459;42.268;23.112;2022-09-03T03:53:19;7.40;;;5.73;;
4889;SDS011;2459;42.268;23.112;2022-09-03T03:55:52;7.43;;;5.70;;
4889;SDS011;2459;42.268;23.112;2022-09-03T03:58:19;9.30;;;5.80;;
4889;SDS011;2459;42.268;23.112;2022-09-03T04:00:47;20.60;;;6.20;;
4889;SDS011;2459;42.268;23.112;2022-09-03T04:03:14;11.30;;;6.43;;
4889;SDS011;2459;42.268;23.112;2022-09-03T04:05:40;8.00;;;5.90;;
4889;SDS011;2459;42.268;23.112;2022-09-03T04:08:07;6.23;;;5.63;;
4889;SDS011;2459;42.268;23.112;2022-09-03T04:10:34;15.23;;;5.60;;
4889;SDS011;2459;42.268;23.112;2022-09-03T04:13:01;9.60;;;5.93;;
4889;SDS011;2459;42.268;23.112;2022-09-03T04:15:27;10.23;;;6.13;;
4889;SDS011;2459;42.268;23.112;2022-09-03T04:17:55;9.70;;;6.40;;
4889;SDS011;2459;42.268;23.112;2022-09-03T04:20:21;11.10;;;6.20;;
4889;SDS011;2459;42.268;23.112;2022-09-03T04:22:48;7.80;;;5.90;;
4889;SDS011;2459;42.268;23.112;2022-09-03T04:25:14;7.70;;;5.07;;
4889;SDS011;2459;42.268;23.112;2022-09-03T04:27:41;7.17;;;4.93;;
4889;SDS011;2459;42.268;23.112;2022-09-03T04:30:08;9.60;;;5.57;;
4889;SDS011;2459;42.268;23.112;2022-09-03T04:32:35;9.83;;;5.57;;
4889;SDS011;2459;42.268;23.112;2022-09-03T04:35:22;7.13;;;5.53;;
4889;SDS011;2459;42.268;23.112;2022-09-03T04:37:49;6.07;;;5.40;;
4889;SDS011;2459;42.268;23.112;2022-09-03T04:40:18;7.33;;;6.23;;
4889;SDS011;2459;42.268;23.112;2022-09-03T04:42:44;6.60;;;5.23;;
4889;SDS011;2459;42.268;23.112;2022-09-03T04:45:11;6.77;;;5.50;;
4889;SDS011;2459;42.268;23.112;2022-09-03T04:47:42;6.60;;;5.17;;
4889;SDS011;2459;42.268;23.112;2022-09-03T04:50:10;18.33;;;5.50;;
4889;SDS011;2459;42.268;23.112;2022-09-03T04:52:39;10.13;;;6.00;;
4889;SDS011;2459;42.268;23.112;2022-09-03T04:55:06;8.10;;;5.10;;
4889;SDS011;2459;42.268;23.112;2022-09-03T04:57:35;8.10;;;5.37;;
4889;SDS011;2459;42.268;23.112;2022-09-03T05:00:03;13.20;;;5.67;;
4889;SDS011;2459;42.268;23.112;2022-09-03T05:02:29;6.70;;;6.00;;
4889;SDS011;2459;42.268;23.112;2022-09-03T05:04:56;6.10;;;4.90;;
4889;SDS011;2459;42.268;23.112;2022-09-03T05:07:22;5.00;;;4.50;;
4889;SDS011;2459;42.268;23.112;2022-09-03T05:09:50;8.93;;;6.20;;
4889;SDS011;2459;42.268;23.112;2022-09-03T05:12:16;5.63;;;5.10;;
4889;SDS011;2459;42.268;23.112;2022-09-03T05:14:43;10.23;;;4.60;;
4889;SDS011;2459;42.268;23.112;2022-09-03T05:17:09;12.00;;;6.23;;
4889;SDS011;2459;42.268;23.112;2022-09-03T05:19:36;7.33;;;5.17;;
4889;SDS011;2459;42.268;23.112;2022-09-03T05:22:02;11.60;;;4.27;;
4889;SDS011;2459;42.268;23.112;2022-09-03T05:24:29;4.87;;;4.47;;
4889;SDS011;2459;42.268;23.112;2022-09-03T05:26:57;4.70;;;4.10;;
4889;SDS011;2459;42.268;23.112;2022-09-03T05:29:23;5.07;;;4.60;;
4889;SDS011;2459;42.268;23.112;2022-09-03T05:31:50;4.40;;;4.00;;
4889;SDS011;2459;42.268;23.112;2022-09-03T05:34:16;5.23;;;4.67;;
4889;SDS011;2459;42.268;23.112;2022-09-03T05:36:43;9.20;;;4.77;;
4889;SDS011;2459;42.268;23.112;2022-09-03T05:39:13;5.27;;;4.57;;
4889;SDS011;2459;42.268;23.112;2022-09-03T05:41:39;7.93;;;5.67;;
4889;SDS011;2459;42.268;23.112;2022-09-03T05:44:07;5.37;;;4.33;;
4889;SDS011;2459;42.268;23.112;2022-09-03T05:46:34;8.03;;;5.00;;
4889;SDS011;2459;42.268;23.112;2022-09-03T05:49:03;5.13;;;4.43;;
4889;SDS011;2459;42.268;23.112;2022-09-03T05:51:29;6.70;;;4.77;;
4889;SDS011;2459;42.268;23.112;2022-09-03T05:53:57;5.00;;;3.77;;
4889;SDS011;2459;42.268;23.112;2022-09-03T05:56:24;6.27;;;5.10;;
4889;SDS011;2459;42.268;23.112;2022-09-03T05:58:51;6.40;;;4.60;;
4889;SDS011;2459;42.268;23.112;2022-09-03T06:01:20;7.27;;;4.90;;
4889;SDS011;2459;42.268;23.112;2022-09-03T06:03:47;6.93;;;4.97;;
4889;SDS011;2459;42.268;23.112;2022-09-03T06:06:19;5.17;;;4.67;;
4889;SDS011;2459;42.268;23.112;2022-09-03T06:08:48;11.63;;;5.33;;
4889;SDS011;2459;42.268;23.112;2022-09-03T06:11:15;6.13;;;4.23;;
4889;SDS011;2459;42.268;23.112;2022-09-03T06:13:42;5.20;;;3.97;;
4889;SDS011;2459;42.268;23.112;2022-09-03T06:16:08;4.97;;;4.40;;
4889;SDS011;2459;42.268;23.112;2022-09-03T06:18:36;8.70;;;4.67;;
4889;SDS011;2459;42.268;23.112;2022-09-03T06:21:03;5.27;;;4.77;;
4889;SDS011;2459;42.268;23.112;2022-09-03T06:23:30;7.53;;;4.30;;
4889;SDS011;2459;42.268;23.112;2022-09-03T06:26:00;7.03;;;3.90;;
4889;SDS011;2459;42.268;23.112;2022-09-03T06:28:26;4.83;;;4.33;;
4889;SDS011;2459;42.268;23.112;2022-09-03T06:30:56;8.70;;;4.97;;
4889;SDS011;2459;42.268;23.112;2022-09-03T06:33:23;6.17;;;4.77;;
4889;SDS011;2459;42.268;23.112;2022-09-03T06:35:52;6.07;;;3.70;;
4889;SDS011;2459;42.268;23.112;2022-09-03T06:38:21;5.23;;;4.73;;
4889;SDS011;2459;42.268;23.112;2022-09-03T06:40:50;7.70;;;4.43;;
4889;SDS011;2459;42.268;23.112;2022-09-03T06:43:17;4.23;;;3.83;;
4889;SDS011;2459;42.268;23.112;2022-09-03T06:45:46;8.20;;;4.37;;
4889;SDS011;2459;42.268;23.112;2022-09-03T06:48:18;4.63;;;3.90;;
4889;SDS011;2459;42.268;23.112;2022-09-03T06:50:53;4.93;;;4.33;;
4889;SDS011;2459;42.268;23.112;2022-09-03T06:53:21;4.73;;;3.80;;
4889;SDS011;2459;42.268;23.112;2022-09-03T06:55:51;6.17;;;4.70;;
4889;SDS011;2459;42.268;23.112;2022-09-03T06:58:17;5.17;;;4.67;;
4889;SDS011;2459;42.268;23.112;2022-09-03T07:00:44;5.50;;;4.27;;
4889;SDS011;2459;42.268;23.112;2022-09-03T07:03:11;6.40;;;4.70;;
4889;SDS011;2459;42.268;23.112;2022-09-03T07:05:38;8.13;;;6.27;;
4889;SDS011;2459;42.268;23.112;2022-09-03T07:08:06;6.70;;;5.37;;
4889;SDS011;2459;42.268;23.112;2022-09-03T07:10:35;10.23;;;5.03;;
4889;SDS011;2459;42.268;23.112;2022-09-03T07:13:01;15.30;;;7.40;;
4889;SDS011;2459;42.268;23.112;2022-09-03T07:15:28;7.63;;;5.07;;
4889;SDS011;2459;42.268;23.112;2022-09-03T07:17:54;4.27;;;3.87;;
4889;SDS011;2459;42.268;23.112;2022-09-03T07:20:21;5.53;;;3.50;;
4889;SDS011;2459;42.268;23.112;2022-09-03T07:22:47;4.00;;;2.80;;
4889;SDS011;2459;42.268;23.112;2022-09-03T07:25:15;4.00;;;3.60;;
4889;SDS011;2459;42.268;23.112;2022-09-03T07:27:42;6.27;;;2.90;;
4889;SDS011;2459;42.268;23.112;2022-09-03T07:30:09;5.93;;;4.07;;
4889;SDS011;2459;42.268;23.112;2022-09-03T07:32:36;3.73;;;3.10;;
4889;SDS011;2459;42.268;23.112;2022-09-03T07:35:05;3.60;;;3.30;;
4889;SDS011;2459;42.268;23.112;2022-09-03T07:37:32;4.10;;;3.70;;
4889;SDS011;2459;42.268;23.112;2022-09-03T07:39:59;6.67;;;3.40;;
4889;SDS011;2459;42.268;23.112;2022-09-03T07:42:27;3.30;;;3.00;;
4889;SDS011;2459;42.268;23.112;2022-09-03T07:44:55;5.67;;;3.10;;
4889;SDS011;2459;42.268;23.112;2022-09-03T07:47:21;5.73;;;2.80;;
4889;SDS011;2459;42.268;23.112;2022-09-03T07:49:50;5.73;;;3.00;;
4889;SDS011;2459;42.268;23.112;2022-09-03T07:52:16;3.67;;;3.30;;
4889;SDS011;2459;42.268;23.112;2022-09-03T07:54:43;4.20;;;3.80;;
4889;SDS011;2459;42.268;23.112;2022-09-03T07:57:09;6.20;;;4.77;;
4889;SDS011;2459;42.268;23.112;2022-09-03T07:59:37;4.40;;;3.70;;
4889;SDS011;2459;42.268;23.112;2022-09-03T08:02:04;3.50;;;2.90;;
4889;SDS011;2459;42.268;23.112;2022-09-03T08:04:31;3.00;;;2.80;;
4889;SDS011;2459;42.268;23.112;2022-09-03T08:06:58;4.17;;;3.30;;
4889;SDS011;2459;42.268;23.112;2022-09-03T08:09:24;2.70;;;2.50;;
4889;SDS011;2459;42.268;23.112;2022-09-03T08:11:51;3.70;;;2.83;;
4889;SDS011;2459;42.268;23.112;2022-09-03T08:14:17;4.67;;;3.10;;
4889;SDS011;2459;42.268;23.112;2022-09-03T08:16:45;3.53;;;3.20;;
4889;SDS011;2459;42.268;23.112;2022-09-03T08:19:12;2.97;;;2.77;;
4889;SDS011;2459;42.268;23.112;2022-09-03T08:21:42;3.60;;;3.30;;
4889;SDS011;2459;42.268;23.112;2022-09-03T08:24:09;4.38;;;2.50;;
4889;SDS011;2459;42.268;23.112;2022-09-03T08:26:36;4.70;;;3.85;;
4889;SDS011;2459;42.268;23.112;2022-09-03T08:29:04;2.67;;;2.47;;
4889;SDS011;2459;42.268;23.112;2022-09-03T08:31:31;2.63;;;2.40;;
4889;SDS011;2459;42.268;23.112;2022-09-03T08:34:00;2.72;;;2.60;;
4889;SDS011;2459;42.268;23.112;2022-09-03T08:36:31;3.67;;;3.42;;
4889;SDS011;2459;42.268;23.112;2022-09-03T08:38:58;6.55;;;2.67;;
4889;SDS011;2459;42.268;23.112;2022-09-03T08:41:31;3.33;;;3.03;;
4889;SDS011;2459;42.268;23.112;2022-09-03T08:44:05;3.17;;;2.97;;
4889;SDS011;2459;42.268;23.112;2022-09-03T08:46:34;3.08;;;2.30;;
4889;SDS011;2459;42.268;23.112;2022-09-03T08:49:04;9.35;;;3.28;;
4889;SDS011;2459;42.268;23.112;2022-09-03T08:51:32;2.08;;;1.98;;
4889;SDS011;2459;42.268;23.112;2022-09-03T08:54:04;3.22;;;1.88;;
4889;SDS011;2459;42.268;23.112;2022-09-03T08:56:32;2.60;;;2.40;;
4889;SDS011;2459;42.268;23.112;2022-09-03T08:59:02;2.50;;;2.40;;
4889;SDS011;2459;42.268;23.112;2022-09-03T09:01:29;3.58;;;2.40;;
4889;SDS011;2459;42.268;23.112;2022-09-03T09:04:03;2.50;;;2.40;;
4889;SDS011;2459;42.268;23.112;2022-09-03T09:06:34;3.58;;;3.35;;
4889;SDS011;2459;42.268;23.112;2022-09-03T09:09:02;3.00;;;2.40;;
4889;SDS011;2459;42.268;23.112;2022-09-03T09:11:35;9.25;;;2.88;;
4889;SDS011;2459;42.268;23.112;2022-09-03T09:14:06;2.88;;;2.67;;
4889;SDS011;2459;42.268;23.112;2022-09-03T09:16:37;2.88;;;2.67;;
4889;SDS011;2459;42.268;23.112;2022-09-03T09:19:11;2.35;;;2.15;;
4889;SDS011;2459;42.268;23.112;2022-09-03T09:21:42;4.60;;;2.00;;
4889;SDS011;2459;42.268;23.112;2022-09-03T09:24:12;2.85;;;2.53;;
4889;SDS011;2459;42.268;23.112;2022-09-03T09:26:43;1.70;;;1.60;;
4889;SDS011;2459;42.268;23.112;2022-09-03T09:29:10;2.03;;;1.92;;
4889;SDS011;2459;42.268;23.112;2022-09-03T09:31:36;3.10;;;2.80;;
4889;SDS011;2459;42.268;23.112;2022-09-03T09:34:03;2.97;;;2.78;;
4889;SDS011;2459;42.268;23.112;2022-09-03T09:36:31;11.52;;;3.67;;
4889;SDS011;2459;42.268;23.112;2022-09-03T09:39:08;3.42;;;2.90;;
4889;SDS011;2459;42.268;23.112;2022-09-03T09:41:34;2.17;;;2.03;;
4889;SDS011;2459;42.268;23.112;2022-09-03T09:44:01;5.78;;;1.98;;
4889;SDS011;2459;42.268;23.112;2022-09-03T09:46:31;3.17;;;2.97;;
4889;SDS011;2459;42.268;23.112;2022-09-03T09:48:59;2.70;;;2.55;;
4889;SDS011;2459;42.268;23.112;2022-09-03T09:51:27;2.53;;;2.40;;
4889;SDS011;2459;42.268;23.112;2022-09-03T09:54:01;2.20;;;2.10;;
4889;SDS011;2459;42.268;23.112;2022-09-03T09:56:29;1.95;;;1.85;;
4889;SDS011;2459;42.268;23.112;2022-09-03T09:59:02;1.45;;;1.45;;
4889;SDS011;2459;42.268;23.112;2022-09-03T10:01:29;1.98;;;1.80;;
4889;SDS011;2459;42.268;23.112;2022-09-03T10:03:56;3.15;;;2.33;;
4889;SDS011;2459;42.268;23.112;2022-09-03T10:06:23;3.30;;;2.58;;
4889;SDS011;2459;42.268;23.112;2022-09-03T10:09:09;2.08;;;1.98;;
4889;SDS011;2459;42.268;23.112;2022-09-03T10:11:37;2.42;;;2.22;;
4889;SDS011;2459;42.268;23.112;2022-09-03T10:14:07;2.50;;;2.40;;
4889;SDS011;2459;42.268;23.112;2022-09-03T10:16:34;2.42;;;2.33;;
4889;SDS011;2459;42.268;23.112;2022-09-03T10:19:04;3.20;;;2.75;;
4889;SDS011;2459;42.268;23.112;2022-09-03T10:21:35;2.40;;;2.30;;
4889;SDS011;2459;42.268;23.112;2022-09-03T10:24:12;2.50;;;2.30;;
4889;SDS011;2459;42.268;23.112;2022-09-03T10:26:42;4.68;;;2.70;;
4889;SDS011;2459;42.268;23.112;2022-09-03T10:29:10;3.08;;;2.85;;
4889;SDS011;2459;42.268;23.112;2022-09-03T10:31:41;2.50;;;2.30;;
4889;SDS011;2459;42.268;23.112;2022-09-03T10:34:13;4.55;;;3.30;;
4889;SDS011;2459;42.268;23.112;2022-09-03T10:36:43;2.38;;;2.28;;
4889;SDS011;2459;42.268;23.112;2022-09-03T10:39:14;14.40;;;3.63;;
4889;SDS011;2459;42.268;23.112;2022-09-03T10:41:49;2.88;;;2.67;;
4889;SDS011;2459;42.268;23.112;2022-09-03T10:44:36;2.55;;;2.45;;
4889;SDS011;2459;42.268;23.112;2022-09-03T10:47:16;2.08;;;1.98;;
4889;SDS011;2459;42.268;23.112;2022-09-03T10:49:49;1.83;;;1.73;;
4889;SDS011;2459;42.268;23.112;2022-09-03T10:52:16;2.55;;;2.05;;
4889;SDS011;2459;42.268;23.112;2022-09-03T10:54:52;6.25;;;1.40;;
4889;SDS011;2459;42.268;23.112;2022-09-03T10:57:25;1.90;;;1.80;;
4889;SDS011;2459;42.268;23.112;2022-09-03T10:59:59;2.13;;;1.35;;
4889;SDS011;2459;42.268;23.112;2022-09-03T11:02:37;1.60;;;1.50;;
4889;SDS011;2459;42.268;23.112;2022-09-03T11:05:10;1.52;;;1.42;;
4889;SDS011;2459;42.268;23.112;2022-09-03T11:07:42;2.55;;;1.90;;
4889;SDS011;2459;42.268;23.112;2022-09-03T11:10:11;4.13;;;1.52;;
4889;SDS011;2459;42.268;23.112;2022-09-03T11:12:43;1.25;;;1.25;;
4889;SDS011;2459;42.268;23.112;2022-09-03T11:15:14;2.85;;;2.20;;
4889;SDS011;2459;42.268;23.112;2022-09-03T11:17:45;3.15;;;1.38;;
4889;SDS011;2459;42.268;23.112;2022-09-03T11:20:14;1.60;;;1.50;;
4889;SDS011;2459;42.268;23.112;2022-09-03T11:22:42;2.20;;;2.10;;
4889;SDS011;2459;42.268;23.112;2022-09-03T11:25:10;1.48;;;1.42;;
4889;SDS011;2459;42.268;23.112;2022-09-03T11:27:44;1.40;;;1.30;;
4889;SDS011;2459;42.268;23.112;2022-09-03T11:30:21;1.08;;;1.08;;
4889;SDS011;2459;42.268;23.112;2022-09-03T11:32:49;1.23;;;1.02;;
4889;SDS011;2459;42.268;23.112;2022-09-03T11:35:23;1.30;;;1.25;;
4889;SDS011;2459;42.268;23.112;2022-09-03T11:37:52;8.80;;;1.38;;
4889;SDS011;2459;42.268;23.112;2022-09-03T11:40:19;0.80;;;0.80;;
4889;SDS011;2459;42.268;23.112;2022-09-03T11:42:50;0.98;;;0.98;;
4889;SDS011;2459;42.268;23.112;2022-09-03T11:45:21;2.08;;;1.30;;
4889;SDS011;2459;42.268;23.112;2022-09-03T11:47:48;0.90;;;0.90;;
4889;SDS011;2459;42.268;23.112;2022-09-03T11:50:17;1.08;;;1.08;;
4889;SDS011;2459;42.268;23.112;2022-09-03T11:52:45;2.38;;;1.33;;
4889;SDS011;2459;42.268;23.112;2022-09-03T11:55:15;2.85;;;1.60;;
4889;SDS011;2459;42.268;23.112;2022-09-03T11:57:50;1.00;;;1.00;;
4889;SDS011;2459;42.268;23.112;2022-09-03T12:00:17;0.85;;;0.85;;
4889;SDS011;2459;42.268;23.112;2022-09-03T12:02:47;0.82;;;0.82;;
4889;SDS011;2459;42.268;23.112;2022-09-03T12:05:16;0.80;;;0.80;;
4889;SDS011;2459;42.268;23.112;2022-09-03T12:07:58;1.23;;;0.98;;
4889;SDS011;2459;42.268;23.112;2022-09-03T12:10:33;0.98;;;0.95;;
4889;SDS011;2459;42.268;23.112;2022-09-03T12:13:06;2.70;;;1.00;;
4889;SDS011;2459;42.268;23.112;2022-09-03T12:15:45;1.00;;;1.00;;
4889;SDS011;2459;42.268;23.112;2022-09-03T12:18:15;1.00;;;1.00;;
4889;SDS011;2459;42.268;23.112;2022-09-03T12:20:44;1.35;;;1.13;;
4889;SDS011;2459;42.268;23.112;2022-09-03T12:23:11;1.88;;;1.10;;
4889;SDS011;2459;42.268;23.112;2022-09-03T12:25:41;0.93;;;0.93;;
4889;SDS011;2459;42.268;23.112;2022-09-03T12:28:11;1.77;;;1.67;;
4889;SDS011;2459;42.268;23.112;2022-09-03T12:30:38;1.10;;;1.02;;
4889;SDS011;2459;42.268;23.112;2022-09-03T12:33:05;1.45;;;1.35;;
4889;SDS011;2459;42.268;23.112;2022-09-03T12:35:32;2.65;;;1.55;;
4889;SDS011;2459;42.268;23.112;2022-09-03T12:37:59;13.00;;;1.80;;
4889;SDS011;2459;42.268;23.112;2022-09-03T12:40:26;3.55;;;1.27;;
4889;SDS011;2459;42.268;23.112;2022-09-03T12:42:53;1.35;;;1.35;;
4889;SDS011;2459;42.268;23.112;2022-09-03T12:45:22;1.05;;;1.05;;
4889;SDS011;2459;42.268;23.112;2022-09-03T12:47:49;1.95;;;1.30;;
4889;SDS011;2459;42.268;23.112;2022-09-03T12:50:18;6.60;;;1.52;;
4889;SDS011;2459;42.268;23.112;2022-09-03T12:52:45;1.75;;;1.65;;
4889;SDS011;2459;42.268;23.112;2022-09-03T12:55:17;3.47;;;2.13;;
4889;SDS011;2459;42.268;23.112;2022-09-03T12:57:45;2.65;;;1.98;;
4889;SDS011;2459;42.268;23.112;2022-09-03T13:00:13;2.90;;;1.63;;
4889;SDS011;2459;42.268;23.112;2022-09-03T13:02:43;3.67;;;3.10;;
4889;SDS011;2459;42.268;23.112;2022-09-03T13:05:13;1.73;;;1.63;;
4889;SDS011;2459;42.268;23.112;2022-09-03T13:07:42;2.58;;;2.03;;
4889;SDS011;2459;42.268;23.112;2022-09-03T13:10:15;1.63;;;1.52;;
4889;SDS011;2459;42.268;23.112;2022-09-03T13:12:48;2.00;;;1.90;;
4889;SDS011;2459;42.268;23.112;2022-09-03T13:15:16;1.98;;;1.88;;
4889;SDS011;2459;42.268;23.112;2022-09-03T13:18:05;1.65;;;1.55;;
4889;SDS011;2459;42.268;23.112;2022-09-03T13:20:34;1.95;;;1.85;;
4889;SDS011;2459;42.268;23.112;2022-09-03T13:23:09;1.50;;;1.50;;
4889;SDS011;2459;42.268;23.112;2022-09-03T13:25:40;3.55;;;2.35;;
4889;SDS011;2459;42.268;23.112;2022-09-03T13:28:16;2.42;;;1.55;;
4889;SDS011;2459;42.268;23.112;2022-09-03T13:30:50;2.55;;;1.60;;
4889;SDS011;2459;42.268;23.112;2022-09-03T13:33:21;2.42;;;2.08;;
4889;SDS011;2459;42.268;23.112;2022-09-03T13:35:50;3.72;;;1.67;;
4889;SDS011;2459;42.268;23.112;2022-09-03T13:38:21;2.10;;;2.00;;
4889;SDS011;2459;42.268;23.112;2022-09-03T13:40:49;2.00;;;1.90;;
4889;SDS011;2459;42.268;23.112;2022-09-03T13:43:22;2.00;;;1.90;;
4889;SDS011;2459;42.268;23.112;2022-09-03T13:45:53;3.05;;;1.73;;
4889;SDS011;2459;42.268;23.112;2022-09-03T13:48:24;5.15;;;2.47;;
4889;SDS011;2459;42.268;23.112;2022-09-03T13:51:12;2.00;;;1.90;;
4889;SDS011;2459;42.268;23.112;2022-09-03T13:53:41;3.17;;;2.55;;
4889;SDS011;2459;42.268;23.112;2022-09-03T13:56:17;2.03;;;1.92;;
4889;SDS011;2459;42.268;23.112;2022-09-03T13:58:45;1.85;;;1.75;;
4889;SDS011;2459;42.268;23.112;2022-09-03T14:01:14;2.17;;;2.08;;
4889;SDS011;2459;42.268;23.112;2022-09-03T14:03:46;2.00;;;1.90;;
4889;SDS011;2459;42.268;23.112;2022-09-03T14:06:19;1.98;;;1.88;;
4889;SDS011;2459;42.268;23.112;2022-09-03T14:08:51;2.80;;;2.60;;
4889;SDS011;2459;42.268;23.112;2022-09-03T14:11:21;2.17;;;2.05;;
4889;SDS011;2459;42.268;23.112;2022-09-03T14:13:53;2.17;;;2.05;;
4889;SDS011;2459;42.268;23.112;2022-09-03T14:16:25;2.27;;;2.07;;
4889;SDS011;2459;42.268;23.112;2022-09-03T14:18:57;3.42;;;2.95;;
4889;SDS011;2459;42.268;23.112;2022-09-03T14:21:26;2.13;;;2.03;;
4889;SDS011;2459;42.268;23.112;2022-09-03T14:23:58;3.40;;;2.43;;
4889;SDS011;2459;42.268;23.112;2022-09-03T14:26:27;2.90;;;2.70;;
4889;SDS011;2459;42.268;23.112;2022-09-03T14:28:58;3.77;;;2.40;;
4889;SDS011;2459;42.268;23.112;2022-09-03T14:31:28;4.22;;;2.30;;
4889;SDS011;2459;42.268;23.112;2022-09-03T14:34:03;2.40;;;2.20;;
4889;SDS011;2459;42.268;23.112;2022-09-03T14:36:34;3.07;;;2.80;;
4889;SDS011;2459;42.268;23.112;2022-09-03T14:39:11;1.90;;;1.80;;
4889;SDS011;2459;42.268;23.112;2022-09-03T14:41:46;2.67;;;2.47;;
4889;SDS011;2459;42.268;23.112;2022-09-03T14:47:09;4.60;;;4.10;;
4889;SDS011;2459;42.268;23.112;2022-09-03T14:49:45;2.70;;;2.37;;
4889;SDS011;2459;42.268;23.112;2022-09-03T14:52:21;3.33;;;2.40;;
4889;SDS011;2459;42.268;23.112;2022-09-03T14:54:59;2.80;;;2.60;;
4889;SDS011;2459;42.268;23.112;2022-09-03T14:57:37;4.10;;;2.70;;
4889;SDS011;2459;42.268;23.112;2022-09-03T15:00:08;3.30;;;2.90;;
4889;SDS011;2459;42.268;23.112;2022-09-03T15:02:44;2.87;;;2.60;;
4889;SDS011;2459;42.268;23.112;2022-09-03T15:05:16;2.13;;;2.03;;
4889;SDS011;2459;42.268;23.112;2022-09-03T15:07:47;7.33;;;2.70;;
4889;SDS011;2459;42.268;23.112;2022-09-03T15:10:17;3.17;;;2.50;;
4889;SDS011;2459;42.268;23.112;2022-09-03T15:12:47;3.83;;;3.47;;
4889;SDS011;2459;42.268;23.112;2022-09-03T15:15:16;2.97;;;2.77;;
4889;SDS011;2459;42.268;23.112;2022-09-03T15:17:53;2.97;;;2.77;;